MDT,Max TemperatureF,Mean TemperatureF,Min TemperatureF,Max Dew PointF,MeanDew PointF,Min DewpointF,Max Humidity, Mean Humidity, Min Humidity, Max Sea Level PressureIn, Mean Sea Level PressureIn, Min Sea Level PressureIn, Max VisibilityMiles, Mean VisibilityMiles, Min VisibilityMiles, Max Wind SpeedMPH, Mean Wind SpeedMPH, Max Gust SpeedMPH,PrecipitationIn, CloudCover, Events, WindDirDegrees
2010-10-1,66,53,40,44,41,39,93,68,42,30.32,30.26,30.18,10,10,10,23,11,28,0.00,0,,105
2010-10-2,79,60,41,53,44,38,89,68,46,30.16,30.07,29.95,10,10,10,12,7,,0.00,0,,114
2010-10-3,86,65,44,45,39,33,76,49,22,30.01,29.87,29.73,10,10,10,13,7,17,0.00,0,,117
2010-10-4,77,63,48,54,44,34,89,62,34,29.88,29.78,29.71,10,10,10,28,5,36,0.01,1,Thunderstorm,310
2010-10-5,54,48,41,52,48,43,100,93,86,30.43,30.24,29.87,10,8,0,22,7,26,0.02,7,Fog-Rain,286
2010-10-6,71,54,37,52,44,37,100,74,47,30.42,30.23,30.02,10,10,6,10,4,12,0.00,0,,122
2010-10-7,74,60,45,49,41,34,93,58,23,30.01,29.92,29.86,10,10,10,25,9,33,0.00,0,,197
2010-10-8,60,53,45,49,42,36,93,71,49,30.08,29.98,29.88,10,10,7,14,6,17,0.27,6,Rain,224
2010-10-9,64,53,42,48,45,41,93,69,44,30.22,30.16,30.07,10,10,10,14,6,17,0.05,4,Rain,248
2010-10-10,70,54,38,49,43,36,92,66,40,30.20,30.07,29.94,10,10,10,13,5,15,0.00,0,,182
2010-10-11,59,47,34,46,41,29,93,64,35,30.31,30.11,29.93,10,10,6,28,9,36,0.10,5,Rain,269
2010-10-12,56,41,26,30,25,22,81,54,26,30.45,30.38,30.30,10,10,10,16,6,22,0.00,0,,233
2010-10-13,68,50,32,35,28,24,78,50,21,30.38,30.28,30.21,10,10,10,16,6,18,0.00,0,,184
2010-10-14,76,56,36,36,29,23,70,42,14,30.20,30.07,29.92,10,10,10,14,7,17,0.00,0,,137
2010-10-15,69,50,30,32,28,24,75,48,21,30.24,29.98,29.87,10,10,10,32,13,43,0.00,0,,262
2010-10-16,51,37,23,31,25,19,84,62,39,30.30,30.19,30.04,10,10,10,12,6,15,0.00,1,,124
2010-10-17,51,39,27,32,27,24,85,61,36,30.25,30.15,30.02,10,10,10,13,5,21,0.00,0,,299
2010-10-18,57,42,26,29,22,17,85,54,23,30.22,30.14,30.05,10,10,10,13,5,17,0.00,0,,179
2010-10-19,61,47,33,32,27,22,69,49,29,30.15,30.07,30.01,10,10,10,16,7,18,0.00,0,,264
2010-10-20,65,48,31,33,30,25,85,54,23,30.12,30.04,29.97,10,10,10,12,4,14,0.00,0,,125
2010-10-21,72,52,32,32,26,21,64,41,17,29.96,29.87,29.78,10,10,10,9,4,10,0.00,0,,140
2010-10-22,65,49,33,36,31,27,75,51,27,29.89,29.81,29.76,10,10,7,9,4,10,0.00,0,,123
2010-10-23,59,50,40,44,36,34,93,67,40,29.80,29.77,29.75,10,10,7,13,5,15,0.11,6,Rain,215
2010-10-24,53,46,38,43,40,35,100,80,59,29.74,29.44,29.21,10,10,10,23,7,26,0.04,5,Rain,198
2010-10-25,41,37,33,35,32,24,100,77,54,29.61,29.46,29.24,10,9,2,30,10,39,0.08,7,Rain-Snow,288
2010-10-26,34,32,29,32,30,28,100,95,89,29.88,29.66,29.54,10,5,0,22,13,28,0.08,8,Fog-Snow,302
2010-10-27,46,36,26,29,26,22,100,71,42,30.33,30.11,29.85,10,10,8,23,10,31,0.00,5,,281
2010-10-28,54,39,23,28,23,19,81,55,28,30.33,30.21,30.01,10,10,10,21,8,25,0.00,0,,151
2010-10-29,61,48,34,32,25,18,62,41,19,29.98,29.94,29.86,10,10,10,28,9,32,0.00,3,,281
2010-10-30,59,43,27,34,30,25,92,65,38,30.04,29.93,29.84,10,10,10,18,6,23,0.00,0,,156
2010-10-31,60,45,30,35,31,27,85,61,37,30.19,29.98,29.87,10,10,10,21,8,28,0.00,2,,195